Sandtown, Arkansas
Current Conditions -  °F | °C
As of 1:53 AM on Friday 28 Nov 2014 (Local Time) from KRUE Reporting Station
Clear Clear  
Wind Chill: 34°   Ceiling: Unl
Heat Index: 34°   Visibility: 10mi
Dew Point: 28°   Wind: 3mph
Humidity: 79%   Direction: NA
Pressure: 30.37"   Gusts: NA
Location:  35.227°N, 92.6879°W
Report Text: KRUE 280753Z AUTO VRB03KT 10SM CLR 01/M02 A3037 RMK AO2 SLP281 T00111022
Loading
Personal Weather Stations






























Interactive Weather Map New forecast layout! Learn more

10-Day Weather Forecast

Advertisements
Track Severe Weather on mobile